createdAt,value
2023-01-05T00:01:13.807Z,82.44
2023-01-05T00:03:41.768Z,82.42
2023-01-05T00:06:15.344Z,82.41
2023-01-05T00:08:44.038Z,82.38
2023-01-05T00:11:34.022Z,82.31
2023-01-05T00:14:21.239Z,82.31
2023-01-05T00:17:07.697Z,82.15
2023-01-05T00:19:54.469Z,81.89
2023-01-05T00:22:31.320Z,81.85
2023-01-05T00:25:09.323Z,81.69
2023-01-05T00:27:32.830Z,81.59
2023-01-05T00:30:00.976Z,81.51
2023-01-05T00:32:29.005Z,81.63
2023-01-05T00:34:58.432Z,81.63
2023-01-05T00:37:32.512Z,81.46
2023-01-05T00:40:00.191Z,81.49
2023-01-05T00:42:27.920Z,80.85
2023-01-05T00:44:55.593Z,80.85
2023-01-05T00:47:23.383Z,81.03
2023-01-05T00:49:51.073Z,81.24
2023-01-05T00:52:18.655Z,81.04
2023-01-05T00:54:46.185Z,81.25
2023-01-05T00:57:14.560Z,81.40
2023-01-05T00:59:42.446Z,81.43
2023-01-05T01:02:10.361Z,81.43
2023-01-05T01:04:39.117Z,81.35
2023-01-05T01:07:07.106Z,81.17
2023-01-05T01:09:35.117Z,81.12
2023-01-05T01:12:03.538Z,81.19
2023-01-05T01:14:31.398Z,81.36
2023-01-05T01:16:59.187Z,81.48
2023-01-05T01:19:27.963Z,81.78
2023-01-05T01:21:55.720Z,81.94
2023-01-05T01:24:27.205Z,81.99
2023-01-05T01:26:55.653Z,81.78
2023-01-05T01:29:24.241Z,81.86
2023-01-05T01:31:53.884Z,82.06
2023-01-05T01:34:22.727Z,82.12
2023-01-05T01:36:50.535Z,82.04
2023-01-05T01:39:19.956Z,82.01
2023-01-05T01:41:49.475Z,81.93
2023-01-05T01:44:50.877Z,81.91
2023-01-05T01:47:25.777Z,81.99
2023-01-05T01:49:55.488Z,82.12
2023-01-05T01:52:25.321Z,81.95
2023-01-05T01:54:53.580Z,81.93
2023-01-05T01:57:22.461Z,81.77
2023-01-05T01:59:50.766Z,81.67
2023-01-05T02:02:20.781Z,81.13
2023-01-05T02:04:49.764Z,81.22
2023-01-05T02:07:17.478Z,81.42
2023-01-05T02:09:46.404Z,81.28
2023-01-05T02:12:52.813Z,81.19
2023-01-05T02:15:41.120Z,81.26
2023-01-05T02:18:35.907Z,81.18
2023-01-05T02:21:21.353Z,81.10
2023-01-05T02:24:08.005Z,81.13
2023-01-05T02:26:45.403Z,81.11
2023-01-05T02:29:50.518Z,81.26
2023-01-05T02:32:22.523Z,81.26
2023-01-05T02:35:03.898Z,81.28
2023-01-05T02:37:48.472Z,81.34
2023-01-05T02:40:21.482Z,81.35
2023-01-05T02:42:52.916Z,81.44
2023-01-05T02:45:22.482Z,81.47
2023-01-05T02:47:51.529Z,81.59
2023-01-05T02:50:30.765Z,81.59
2023-01-05T02:53:11.505Z,81.65
2023-01-05T02:55:52.912Z,81.78
2023-01-05T02:58:30.631Z,81.83
2023-01-05T03:01:17.723Z,81.78
2023-01-05T03:04:04.237Z,81.74
2023-01-05T03:06:43.311Z,81.55
2023-01-05T03:09:26.936Z,81.59
2023-01-05T03:12:50.407Z,81.49
2023-01-05T03:15:34.275Z,81.20
2023-01-05T03:18:16.729Z,80.85
2023-01-05T03:20:51.219Z,81.00
2023-01-05T03:23:47.173Z,81.10
2023-01-05T03:26:40.637Z,80.83
2023-01-05T03:29:39.042Z,80.81
2023-01-05T03:32:42.031Z,80.92
2023-01-05T03:35:33.655Z,80.66
2023-01-05T03:38:28.722Z,80.46
2023-01-05T03:41:00.488Z,80.43
2023-01-05T03:43:29.104Z,80.14
2023-01-05T03:45:57.823Z,80.31
2023-01-05T03:48:28.870Z,80.17
2023-01-05T03:50:56.905Z,80.17
2023-01-05T03:53:25.420Z,80.12
2023-01-05T03:55:53.927Z,80.09
2023-01-05T03:58:22.137Z,79.88
2023-01-05T04:00:50.207Z,79.85
2023-01-05T04:03:18.591Z,79.98
2023-01-05T04:05:46.715Z,80.04
2023-01-05T04:08:16.443Z,79.99
2023-01-05T04:10:44.870Z,79.99
2023-01-05T04:13:13.422Z,79.93
2023-01-05T04:15:42.831Z,80.02
2023-01-05T04:18:10.774Z,79.92
2023-01-05T04:20:38.956Z,79.90
2023-01-05T04:23:07.258Z,79.86
2023-01-05T04:25:35.014Z,79.91
2023-01-05T04:28:04.827Z,79.99
2023-01-05T04:30:33.776Z,79.89
2023-01-05T04:33:01.443Z,79.93
2023-01-05T04:35:29.584Z,79.81
2023-01-05T04:37:57.344Z,79.62
2023-01-05T04:40:24.895Z,79.36
2023-01-05T04:42:53.643Z,79.31
2023-01-05T04:45:21.638Z,79.20
2023-01-05T04:47:51.966Z,79.17
2023-01-05T04:50:21.159Z,78.94
2023-01-05T04:52:49.233Z,79.10
2023-01-05T04:55:17.909Z,78.95
2023-01-05T04:57:45.690Z,78.88
2023-01-05T05:00:14.342Z,78.71
2023-01-05T05:02:43.864Z,78.33
2023-01-05T05:05:13.779Z,78.13
2023-01-05T05:07:41.474Z,78.06
2023-01-05T05:10:10.143Z,78.00
2023-01-05T05:12:39.359Z,77.83
2023-01-05T05:15:09.067Z,77.92
2023-01-05T05:17:36.698Z,77.81
2023-01-05T05:20:06.072Z,77.91
2023-01-05T05:22:33.911Z,78.14
2023-01-05T05:25:01.983Z,78.18
2023-01-05T05:27:30.377Z,78.21
2023-01-05T05:29:58.089Z,78.37
2023-01-05T05:32:25.833Z,78.57
2023-01-05T05:34:53.563Z,78.69
2023-01-05T05:37:21.138Z,78.96
2023-01-05T05:39:48.879Z,79.21
2023-01-05T05:42:16.415Z,79.10
2023-01-05T05:44:44.145Z,79.16
2023-01-05T05:47:11.726Z,79.20
2023-01-05T05:49:39.706Z,79.09
2023-01-05T05:52:07.525Z,79.01
2023-01-05T05:54:35.297Z,79.25
2023-01-05T05:57:02.882Z,79.08
2023-01-05T05:59:30.369Z,79.14
2023-01-05T06:01:58.382Z,79.23
2023-01-05T06:04:26.348Z,79.41
2023-01-05T06:06:54.185Z,79.56
2023-01-05T06:09:21.775Z,79.68
2023-01-05T06:11:49.565Z,79.56
2023-01-05T06:14:17.165Z,79.68
2023-01-05T06:16:45.306Z,79.65
2023-01-05T06:19:12.923Z,79.55
2023-01-05T06:21:40.541Z,79.72
2023-01-05T06:24:09.281Z,79.18
2023-01-05T06:26:36.712Z,79.04
2023-01-05T06:29:04.221Z,78.79
2023-01-05T06:31:31.832Z,78.43
2023-01-05T06:33:59.307Z,78.32
2023-01-05T06:36:27.074Z,78.20
2023-01-05T06:38:54.842Z,77.98
2023-01-05T06:41:22.387Z,77.57
2023-01-05T06:43:50.028Z,77.82
2023-01-05T06:46:17.409Z,78.12
2023-01-05T06:48:45.077Z,78.43
2023-01-05T06:51:12.733Z,78.53
2023-01-05T06:53:40.440Z,78.67
2023-01-05T06:56:08.104Z,78.68
2023-01-05T06:58:35.867Z,78.74
2023-01-05T07:01:03.813Z,78.64
2023-01-05T07:03:31.718Z,78.73
2023-01-05T07:05:59.391Z,78.78
2023-01-05T07:08:27.395Z,78.84
2023-01-05T07:10:55.247Z,78.81
2023-01-05T07:13:23.190Z,78.84
2023-01-05T07:15:50.785Z,78.98
2023-01-05T07:18:18.261Z,78.94
2023-01-05T07:20:45.807Z,79.02
2023-01-05T07:23:13.451Z,79.27
2023-01-05T07:25:41.089Z,79.44
2023-01-05T07:28:08.932Z,79.50
2023-01-05T07:30:36.578Z,79.76
2023-01-05T07:33:04.770Z,79.81
2023-01-05T07:35:32.654Z,79.92
2023-01-05T07:38:00.101Z,79.93
2023-01-05T07:40:28.108Z,79.95
2023-01-05T07:42:55.549Z,79.87
2023-01-05T07:45:23.391Z,79.96
2023-01-05T07:47:50.916Z,80.01
2023-01-05T07:50:21.442Z,79.91
2023-01-05T07:52:48.921Z,79.93
2023-01-05T07:55:16.845Z,79.95
2023-01-05T07:57:44.423Z,79.64
2023-01-05T08:00:14.462Z,79.63
2023-01-05T08:02:43.310Z,79.57
2023-01-05T08:05:11.189Z,79.39
2023-01-05T08:07:38.747Z,79.37
2023-01-05T08:10:25.761Z,79.38
2023-01-05T08:13:12.250Z,79.37
2023-01-05T08:15:39.755Z,79.43
2023-01-05T08:18:07.321Z,79.49
2023-01-05T08:20:34.793Z,79.00
2023-01-05T08:23:02.898Z,79.04
2023-01-05T08:25:30.346Z,79.33
2023-01-05T08:27:59.444Z,79.31
2023-01-05T08:30:27.169Z,79.46
2023-01-05T08:32:54.679Z,79.25
2023-01-05T08:35:22.482Z,78.85
2023-01-05T08:37:50.482Z,79.24
2023-01-05T08:40:18.122Z,79.30
2023-01-05T08:42:47.502Z,79.33
2023-01-05T08:45:16.084Z,79.04
2023-01-05T08:47:44.493Z,79.21
2023-01-05T08:50:12.545Z,79.34
2023-01-05T08:52:40.674Z,79.34
2023-01-05T08:55:08.791Z,79.32
2023-01-05T08:57:36.338Z,79.40
2023-01-05T09:00:05.768Z,79.45
2023-01-05T09:02:33.549Z,79.49
2023-01-05T09:05:02.499Z,79.47
2023-01-05T09:07:30.134Z,79.35
2023-01-05T09:09:57.740Z,79.53
2023-01-05T09:12:30.921Z,79.35
2023-01-05T09:14:54.852Z,78.89
2023-01-05T09:17:22.693Z,78.97
2023-01-05T09:19:50.150Z,78.52
2023-01-05T09:22:18.510Z,78.13
2023-01-05T09:24:46.601Z,78.09
2023-01-05T09:27:15.232Z,77.81
2023-01-05T09:29:42.675Z,77.38
2023-01-05T09:32:11.065Z,77.60
2023-01-05T09:34:38.499Z,77.71
2023-01-05T09:37:06.044Z,77.26
2023-01-05T09:39:33.764Z,76.52
2023-01-05T09:42:05.404Z,76.54
2023-01-05T09:44:44.255Z,76.79
2023-01-05T09:47:40.553Z,76.57
2023-01-05T09:50:18.531Z,76.44
2023-01-05T09:52:47.137Z,76.57
2023-01-05T09:55:19.138Z,76.73
2023-01-05T09:57:57.682Z,76.54
2023-01-05T10:00:26.645Z,76.12
2023-01-05T10:03:01.434Z,76.16
2023-01-05T10:05:32.312Z,76.28
2023-01-05T10:08:07.737Z,76.43
2023-01-05T10:11:26.405Z,76.28
2023-01-05T10:14:16.236Z,76.62
2023-01-05T10:16:46.326Z,76.69
2023-01-05T10:19:16.928Z,76.50
2023-01-05T10:22:02.188Z,76.55
2023-01-05T10:24:40.734Z,76.36
2023-01-05T10:27:28.721Z,76.28
2023-01-05T10:30:04.751Z,76.56
2023-01-05T10:33:26.855Z,76.72
2023-01-05T10:36:00.662Z,76.79
2023-01-05T10:38:25.469Z,76.79
2023-01-05T10:41:07.881Z,76.83
2023-01-05T10:44:04.960Z,76.69
2023-01-05T10:46:40.681Z,76.71
2023-01-05T10:49:02.210Z,76.59
2023-01-05T10:51:33.488Z,76.71
2023-01-05T10:54:03.524Z,76.70
2023-01-05T10:56:32.631Z,76.57
2023-01-05T10:59:09.877Z,76.32
2023-01-05T11:01:42.142Z,76.23
2023-01-05T11:04:34.008Z,75.96
2023-01-05T11:06:52.363Z,76.24
2023-01-05T11:09:23.718Z,76.18
2023-01-05T11:11:58.889Z,76.16
2023-01-05T11:14:29.438Z,75.93
2023-01-05T11:17:04.310Z,75.57
2023-01-05T11:19:40.182Z,75.45
2023-01-05T11:22:36.537Z,75.77
2023-01-05T11:25:28.945Z,75.83
2023-01-05T11:28:15.407Z,75.32
2023-01-05T11:30:59.459Z,75.40
2023-01-05T11:33:29.652Z,75.63
2023-01-05T11:35:58.612Z,75.55
2023-01-05T11:38:31.372Z,75.65
2023-01-05T11:41:00.519Z,75.57
2023-01-05T11:43:31.812Z,75.76
2023-01-05T11:46:04.651Z,75.87
2023-01-05T11:48:35.487Z,75.87
2023-01-05T11:51:03.421Z,75.90
2023-01-05T11:53:38.526Z,76.05
2023-01-05T11:56:20.891Z,76.08
2023-01-05T11:58:54.641Z,76.15
2023-01-05T12:01:52.721Z,76.43
2023-01-05T12:04:55.571Z,76.54
2023-01-05T12:07:28.754Z,76.84
2023-01-05T12:10:21.739Z,77.07
2023-01-05T12:13:23.333Z,77.33
2023-01-05T12:16:31.125Z,77.28
2023-01-05T12:19:30.113Z,77.35
2023-01-05T12:22:19.957Z,77.48
2023-01-05T12:24:52.983Z,77.40
2023-01-05T12:28:05.056Z,77.26
2023-01-05T12:36:33.678Z,76.74
2023-01-05T12:39:31.573Z,76.88
2023-01-05T12:42:25.312Z,76.91
2023-01-05T12:45:32.380Z,76.70
2023-01-05T12:48:11.486Z,76.76
2023-01-05T12:50:55.971Z,77.00
2023-01-05T12:53:41.102Z,77.19
2023-01-05T12:56:32.419Z,77.26
2023-01-05T12:59:28.237Z,77.58
2023-01-05T13:02:18.522Z,78.18
2023-01-05T13:04:56.208Z,78.59
2023-01-05T13:07:29.255Z,78.56
2023-01-05T13:10:03.363Z,78.54
2023-01-05T13:12:37.196Z,78.82
2023-01-05T13:15:21.407Z,79.16
2023-01-05T13:17:53.603Z,79.25
2023-01-05T13:20:32.609Z,79.48
2023-01-05T13:23:08.537Z,79.65
2023-01-05T13:26:05.657Z,79.95
2023-01-05T13:28:35.098Z,80.15
2023-01-05T13:31:45.425Z,80.40
2023-01-05T13:34:47.163Z,80.37
2023-01-05T13:37:41.056Z,80.43
2023-01-05T13:40:30.463Z,80.42
2023-01-05T13:43:30.317Z,80.47
2023-01-05T13:46:30.265Z,80.42
2023-01-05T13:49:37.056Z,79.79
2023-01-05T13:52:28.437Z,79.79
2023-01-05T13:55:02.469Z,79.84
2023-01-05T13:57:41.305Z,80.14
2023-01-05T14:00:29.699Z,80.31
2023-01-05T14:03:08.738Z,80.04
2023-01-05T14:05:57.646Z,80.17
2023-01-05T14:08:36.136Z,80.67
2023-01-05T14:11:17.671Z,81.49
2023-01-05T14:14:08.081Z,82.54
2023-01-05T14:16:41.825Z,83.12
2023-01-05T14:22:22.786Z,83.26
2023-01-05T14:24:50.461Z,83.25
2023-01-05T14:27:21.525Z,83.59
2023-01-05T14:29:59.582Z,83.67
2023-01-05T14:32:41.933Z,83.71
2023-01-05T14:35:23.591Z,83.65
2023-01-05T14:37:56.693Z,83.40
2023-01-05T14:40:41.746Z,83.17
2023-01-05T14:43:32.012Z,83.28
2023-01-05T14:46:10.573Z,83.39
2023-01-05T14:49:00.793Z,83.37
2023-01-05T14:51:33.128Z,83.05
2023-01-05T14:54:04.279Z,82.94
2023-01-05T14:56:35.348Z,82.73
2023-01-05T14:59:19.441Z,82.66
2023-01-05T15:02:04.409Z,82.69
2023-01-05T15:04:37.203Z,82.87
2023-01-05T15:07:26.200Z,83.21
2023-01-05T15:10:28.335Z,83.30
2023-01-05T15:16:18.326Z,83.65
2023-01-05T15:19:06.279Z,83.95
2023-01-05T15:22:07.957Z,84.12
2023-01-05T15:24:56.110Z,84.22
2023-01-05T15:27:50.040Z,84.47
2023-01-05T15:30:44.273Z,84.51
2023-01-05T15:33:37.308Z,84.45
2023-01-05T15:36:06.583Z,84.73
2023-01-05T15:38:46.578Z,84.83
2023-01-05T15:41:17.868Z,84.93
2023-01-05T15:43:46.776Z,85.20
2023-01-05T15:46:22.247Z,85.10
2023-01-05T15:48:53.233Z,85.14
2023-01-05T15:51:30.744Z,85.14
2023-01-05T15:54:01.743Z,85.08
2023-01-05T15:56:41.291Z,85.00
2023-01-05T15:59:29.055Z,85.01
2023-01-05T16:01:56.668Z,84.80
2023-01-05T16:04:24.933Z,84.74
2023-01-05T16:06:59.967Z,84.71
2023-01-05T16:09:35.050Z,84.66
2023-01-05T16:12:10.947Z,84.66
2023-01-05T16:14:45.288Z,84.72
2023-01-05T16:17:21.559Z,84.83
2023-01-05T16:20:07.414Z,84.93
2023-01-05T16:22:40.739Z,85.06
2023-01-05T16:25:24.580Z,85.17
2023-01-05T16:27:58.587Z,85.35
2023-01-05T16:30:41.721Z,85.45
2023-01-05T16:33:35.487Z,85.46
2023-01-05T16:36:21.940Z,85.59
2023-01-05T16:38:49.807Z,85.64
2023-01-05T16:41:26.070Z,85.56
2023-01-05T16:43:57.865Z,85.61
2023-01-05T16:46:33.197Z,85.64
2023-01-05T16:49:41.153Z,85.71
2023-01-05T16:52:09.037Z,86.62
2023-01-05T16:54:40.196Z,86.80
2023-01-05T16:57:35.485Z,87.40
2023-01-05T17:00:06.649Z,88.97
2023-01-05T17:02:48.509Z,89.02
2023-01-05T17:05:22.465Z,89.26
2023-01-05T17:08:04.489Z,89.41
2023-01-05T17:10:32.456Z,89.05
2023-01-05T17:13:07.631Z,89.16
2023-01-05T17:15:36.439Z,88.90
2023-01-05T17:18:24.133Z,88.69
2023-01-05T17:20:54.573Z,88.43
2023-01-05T17:23:35.712Z,88.11
2023-01-05T17:26:07.356Z,87.89
2023-01-05T17:28:35.058Z,87.72
2023-01-05T17:31:03.529Z,87.48
2023-01-05T17:33:31.189Z,87.30
2023-01-05T17:35:58.763Z,87.12
2023-01-05T17:38:26.205Z,86.93
2023-01-05T17:40:53.789Z,86.79
2023-01-05T17:43:21.317Z,86.75
2023-01-05T17:45:49.129Z,86.61
2023-01-05T17:48:17.038Z,86.40
2023-01-05T17:50:45.550Z,86.15
2023-01-05T17:53:13.046Z,85.93
2023-01-05T17:55:42.506Z,85.83
2023-01-05T17:58:13.910Z,85.74
2023-01-05T18:00:43.933Z,85.53
2023-01-05T18:03:16.927Z,85.50
2023-01-05T18:05:44.788Z,85.46
2023-01-05T18:08:12.533Z,85.32
2023-01-05T18:13:09.607Z,85.00
2023-01-05T18:15:44.048Z,85.00
2023-01-05T18:18:13.096Z,84.94
2023-01-05T18:20:42.048Z,84.90
2023-01-05T18:23:10.417Z,84.87
2023-01-05T18:25:39.086Z,84.87
2023-01-05T18:28:07.383Z,84.92
2023-01-05T18:30:35.466Z,85.03
2023-01-05T18:33:03.311Z,85.13
2023-01-05T18:35:31.154Z,85.02
2023-01-05T18:38:00.645Z,84.91
2023-01-05T18:40:28.934Z,84.88
2023-01-05T18:42:56.505Z,84.51
2023-01-05T18:45:38.478Z,84.57
2023-01-05T18:47:58.119Z,84.45
2023-01-05T18:50:26.110Z,84.13
2023-01-05T18:52:53.977Z,84.08
2023-01-05T18:55:21.898Z,83.86
2023-01-05T18:57:49.539Z,83.71
2023-01-05T19:00:17.660Z,83.64
2023-01-05T19:02:45.107Z,83.69
2023-01-05T19:05:12.869Z,83.74
2023-01-05T19:07:41.304Z,83.82
2023-01-05T19:10:09.452Z,83.95
2023-01-05T19:12:37.891Z,84.07
2023-01-05T19:15:06.410Z,84.20
2023-01-05T19:17:34.370Z,84.22
2023-01-05T19:20:02.178Z,84.46
2023-01-05T19:22:29.881Z,84.53
2023-01-05T19:24:58.388Z,84.64
2023-01-05T19:27:27.596Z,84.66
2023-01-05T19:29:55.110Z,84.70
2023-01-05T19:32:23.662Z,84.75
2023-01-05T19:34:51.379Z,84.83
2023-01-05T19:37:18.875Z,84.93
2023-01-05T19:39:46.541Z,85.01
2023-01-05T19:42:14.259Z,85.00
2023-01-05T19:44:41.642Z,85.05
2023-01-05T19:47:09.199Z,84.86
2023-01-05T19:49:36.709Z,84.83
2023-01-05T19:52:04.676Z,84.75
2023-01-05T19:54:32.289Z,84.64
2023-01-05T19:56:59.865Z,84.43
2023-01-05T19:59:29.391Z,84.33
2023-01-05T20:01:57.216Z,84.21
2023-01-05T20:04:25.073Z,84.12
2023-01-05T20:06:53.116Z,84.13
2023-01-05T20:09:21.601Z,84.08
2023-01-05T20:11:54.764Z,84.13
2023-01-05T20:14:32.301Z,84.13
2023-01-05T20:17:06.184Z,83.96
2023-01-05T20:19:35.456Z,83.94
2023-01-05T20:22:07.147Z,84.03
2023-01-05T20:24:36.799Z,84.15
2023-01-05T20:27:09.388Z,84.14
2023-01-05T20:29:37.434Z,84.33
2023-01-05T20:32:15.770Z,84.50
2023-01-05T20:34:45.738Z,84.76
2023-01-05T20:37:13.289Z,84.90
2023-01-05T20:39:41.738Z,84.99
2023-01-05T20:42:11.011Z,85.05
2023-01-05T20:44:42.705Z,85.29
2023-01-05T20:47:11.377Z,85.26
2023-01-05T20:49:40.126Z,85.45
2023-01-05T20:52:10.162Z,85.55
2023-01-05T20:54:39.652Z,85.54
2023-01-05T20:57:07.953Z,85.56
2023-01-05T20:59:41.103Z,85.52
2023-01-05T21:02:22.442Z,85.50
2023-01-05T21:04:41.296Z,85.54
2023-01-05T21:07:08.835Z,85.38
2023-01-05T21:09:36.496Z,85.34
2023-01-05T21:12:05.198Z,85.37
2023-01-05T21:14:33.011Z,85.54
2023-01-05T21:17:00.722Z,85.64
2023-01-05T21:19:28.258Z,85.55
2023-01-05T21:21:57.546Z,85.76
2023-01-05T21:24:26.341Z,85.84
2023-01-05T21:26:54.623Z,85.76
2023-01-05T21:29:25.326Z,85.91
2023-01-05T21:31:56.696Z,86.34
2023-01-05T21:34:25.335Z,86.26
2023-01-05T21:36:52.991Z,86.63
2023-01-05T21:39:24.276Z,86.81
2023-01-05T21:42:11.693Z,86.49
2023-01-05T21:44:39.981Z,86.70
2023-01-05T21:47:08.075Z,86.66
2023-01-05T21:49:36.367Z,87.08
2023-01-05T21:52:24.092Z,86.77
2023-01-05T21:55:10.322Z,86.71
2023-01-05T21:57:37.929Z,86.72
2023-01-05T22:00:06.989Z,86.70
2023-01-05T22:02:34.696Z,86.59
2023-01-05T22:05:02.662Z,86.38
2023-01-05T22:07:30.427Z,86.34
2023-01-05T22:09:58.210Z,86.30
2023-01-05T22:12:25.800Z,86.10
2023-01-05T22:14:53.487Z,86.09
2023-01-05T22:17:21.231Z,86.14
2023-01-05T22:19:48.746Z,85.67
2023-01-05T22:22:16.368Z,85.84
2023-01-05T22:24:44.176Z,85.82
2023-01-05T22:27:11.804Z,85.67
2023-01-05T22:29:40.296Z,85.41
2023-01-05T22:32:07.995Z,85.48
2023-01-05T22:34:36.735Z,85.22
2023-01-05T22:37:04.422Z,85.09
2023-01-05T22:39:32.033Z,85.08
2023-01-05T22:41:59.774Z,84.90
2023-01-05T22:44:27.287Z,84.81
2023-01-05T22:46:56.923Z,84.60
2023-01-05T22:49:24.458Z,84.58
2023-01-05T22:51:51.932Z,84.51
2023-01-05T22:54:19.844Z,84.31
2023-01-05T22:56:47.388Z,84.30
2023-01-05T22:59:14.998Z,84.26
2023-01-05T23:01:44.459Z,84.21
2023-01-05T23:04:12.553Z,84.25
2023-01-05T23:06:40.779Z,84.24
2023-01-05T23:09:13.458Z,84.07
2023-01-05T23:11:44.709Z,83.60
2023-01-05T23:14:14.365Z,83.51
2023-01-05T23:16:42.126Z,83.16
2023-01-05T23:19:12.087Z,82.97
2023-01-05T23:21:39.877Z,82.93
2023-01-05T23:24:08.426Z,82.82
2023-01-05T23:26:36.118Z,82.87
2023-01-05T23:29:04.164Z,82.30
2023-01-05T23:31:31.631Z,82.50
2023-01-05T23:33:59.443Z,82.10
2023-01-05T23:36:27.180Z,81.52
2023-01-05T23:38:55.899Z,82.09
2023-01-05T23:41:23.470Z,81.96
2023-01-05T23:43:51.071Z,82.21
2023-01-05T23:46:21.110Z,81.63
2023-01-05T23:48:50.701Z,81.45
2023-01-05T23:51:18.670Z,81.90
2023-01-05T23:53:49.418Z,81.19
2023-01-05T23:56:28.325Z,81.74
2023-01-05T23:59:00.086Z,81.72
